Time;durP1;ratioP1;P1;durP2;ratioP2;P2;SDS_P1;SDS_P2;PMS_P1;PMS_P2;Temp;Humidity;BMP_temperature;BMP_pressure;BME280_temperature;BME280_humidity;BME280_pressure;Samples;Min_cycle;Max_cycle;Signal;HPM_P1;HPM_P2
2022/03/30 00:01:16;;;;;;;39.10;18.47;;;17.10;45.00;;;;;;5130704;27;21215;-82
2022/03/30 00:03:44;;;;;;;39.23;19.50;;;17.00;44.90;;;;;;5131568;27;20453;-82
2022/03/30 00:06:11;;;;;;;44.67;21.00;;;16.90;45.20;;;;;;5130200;27;20454;-82
2022/03/30 00:08:38;;;;;;;37.23;18.57;;;16.90;45.30;;;;;;5129249;27;20449;-83
2022/03/30 00:11:05;;;;;;;29.33;16.67;;;16.90;45.20;;;;;;5112127;27;20996;-82
2022/03/30 00:13:32;;;;;;;21.40;13.50;;;16.90;45.10;;;;;;5132161;27;20459;-82
2022/03/30 00:15:59;;;;;;;27.83;15.43;;;16.60;45.30;;;;;;5130256;27;20449;-83
2022/03/30 00:18:26;;;;;;;30.50;16.57;;;16.60;45.90;;;;;;5119944;27;20980;-82
2022/03/30 00:20:54;;;;;;;28.20;15.77;;;16.60;46.10;;;;;;5129533;27;20563;-84
2022/03/30 00:23:21;;;;;;;22.67;14.37;;;16.70;46.10;;;;;;5128091;27;20446;-82
2022/03/30 00:25:48;;;;;;;19.93;13.53;;;16.70;46.00;;;;;;5129469;27;20827;-82
2022/03/30 00:28:15;;;;;;;20.60;14.67;;;16.80;45.90;;;;;;5132234;27;20448;-83
2022/03/30 00:30:43;;;;;;;25.27;14.50;;;16.70;45.20;;;;;;5130856;27;21028;-82
2022/03/30 00:33:10;;;;;;;23.73;13.87;;;16.70;45.70;;;;;;5128363;27;20454;-83
2022/03/30 00:35:37;;;;;;;23.10;14.90;;;16.70;45.80;;;;;;5128640;27;20534;-82
2022/03/30 00:38:05;;;;;;;23.97;14.67;;;16.70;46.20;;;;;;5127738;27;20645;-82
2022/03/30 00:40:32;;;;;;;24.20;15.00;;;16.70;45.90;;;;;;5129146;27;20958;-83
2022/03/30 00:42:59;;;;;;;21.97;13.43;;;16.70;45.90;;;;;;5129513;27;20445;-82
2022/03/30 00:45:26;;;;;;;22.60;14.20;;;16.70;46.40;;;;;;5128935;27;20460;-82
2022/03/30 00:47:53;;;;;;;22.17;13.90;;;16.70;46.60;;;;;;5134522;27;20450;-83
2022/03/30 00:50:23;;;;;;;18.23;13.63;;;16.70;46.40;;;;;;5133376;27;20477;-84
2022/03/30 00:52:53;;;;;;;24.37;14.93;;;16.70;46.50;;;;;;5132269;27;20452;-84
2022/03/30 00:55:22;;;;;;;22.43;14.00;;;16.70;46.60;;;;;;5134216;27;20441;-81
2022/03/30 00:57:49;;;;;;;20.97;13.83;;;16.70;46.90;;;;;;5133297;27;20441;-83
2022/03/30 01:00:17;;;;;;;17.93;12.47;;;16.70;46.90;;;;;;5133582;27;20493;-82
2022/03/30 01:02:46;;;;;;;19.63;13.93;;;16.70;47.00;;;;;;5133080;27;20464;-81
2022/03/30 01:05:14;;;;;;;23.33;14.13;;;16.70;47.30;;;;;;5131656;27;20537;-83
2022/03/30 01:07:41;;;;;;;26.57;14.57;;;16.70;48.10;;;;;;5133495;27;20543;-82
2022/03/30 01:10:10;;;;;;;19.70;13.87;;;16.70;47.50;;;;;;5132563;27;21192;-83
2022/03/30 01:12:39;;;;;;;19.93;14.30;;;16.70;47.30;;;;;;5136545;27;20449;-82
2022/03/30 01:15:08;;;;;;;20.43;13.57;;;16.70;47.20;;;;;;5130603;27;20456;-83
2022/03/30 01:17:36;;;;;;;20.63;12.30;;;16.60;46.50;;;;;;5133779;27;20485;-80
2022/03/30 01:20:05;;;;;;;16.80;11.60;;;16.60;46.00;;;;;;5132183;27;21269;-83
2022/03/30 01:22:33;;;;;;;17.33;11.23;;;16.60;46.30;;;;;;5134826;27;20450;-82
2022/03/30 01:25:01;;;;;;;16.23;11.53;;;16.60;46.60;;;;;;5134638;27;20446;-84
2022/03/30 01:27:28;;;;;;;19.10;12.10;;;16.60;46.70;;;;;;5132306;27;20545;-81
2022/03/30 01:32:40;;;;;;;14.13;9.90;;;16.50;46.50;;;;;;5130328;27;20477;-82
2022/03/30 01:35:10;;;;;;;14.67;10.27;;;16.40;46.60;;;;;;5131433;27;21120;-84
2022/03/30 01:37:38;;;;;;;13.50;10.10;;;16.40;46.30;;;;;;5135285;27;20521;-79
2022/03/30 01:40:07;;;;;;;17.80;11.40;;;16.40;46.80;;;;;;5131366;27;20474;-83
2022/03/30 01:42:35;;;;;;;20.70;12.03;;;16.40;46.90;;;;;;5133640;27;20449;-82
2022/03/30 01:45:02;;;;;;;24.10;13.13;;;16.40;46.80;;;;;;5131691;27;20453;-83
2022/03/30 01:47:29;;;;;;;19.70;11.97;;;16.40;47.00;;;;;;5123299;27;20445;-82
2022/03/30 01:49:56;;;;;;;14.90;10.27;;;16.40;47.10;;;;;;5129684;27;20493;-82
2022/03/30 01:52:24;;;;;;;18.03;10.90;;;16.40;47.20;;;;;;5131981;27;20457;-82
2022/03/30 01:54:52;;;;;;;14.60;9.60;;;16.40;47.10;;;;;;5132301;27;21080;-81
2022/03/30 01:57:19;;;;;;;16.20;9.63;;;16.40;47.20;;;;;;5130519;27;20805;-82
2022/03/30 01:59:48;;;;;;;19.43;10.20;;;16.40;47.00;;;;;;5134155;27;20482;-84
2022/03/30 02:02:15;;;;;;;15.47;9.60;;;16.30;46.30;;;;;;5133158;27;20461;-83
2022/03/30 02:04:43;;;;;;;14.47;10.27;;;16.30;46.80;;;;;;5133001;27;20527;-84
2022/03/30 02:07:10;;;;;;;14.30;9.30;;;16.30;46.80;;;;;;5133437;27;20450;-82
2022/03/30 02:09:37;;;;;;;14.43;9.80;;;16.30;47.10;;;;;;5131470;27;20674;-82
2022/03/30 02:12:08;;;;;;;14.57;9.97;;;16.20;46.70;;;;;;5133895;27;20449;-81
2022/03/30 02:14:35;;;;;;;14.63;9.67;;;16.30;46.80;;;;;;5110977;27;20473;-83
2022/03/30 02:17:02;;;;;;;13.53;9.40;;;16.30;46.60;;;;;;5117477;27;20450;-82
2022/03/30 02:19:30;;;;;;;16.07;9.40;;;16.20;46.60;;;;;;5130192;27;20470;-82
2022/03/30 02:21:57;;;;;;;15.50;9.07;;;16.20;46.60;;;;;;5130828;27;21145;-82
2022/03/30 02:24:24;;;;;;;13.63;9.10;;;16.20;46.70;;;;;;5130152;27;20445;-83
2022/03/30 02:26:52;;;;;;;12.47;8.00;;;16.20;46.30;;;;;;5133178;27;20456;-83
2022/03/30 02:29:21;;;;;;;14.27;9.50;;;16.20;46.50;;;;;;5130337;27;20458;-82
2022/03/30 02:31:48;;;;;;;15.90;8.60;;;16.20;47.10;;;;;;5128447;27;20449;-80
2022/03/30 02:34:16;;;;;;;12.50;8.70;;;16.20;46.20;;;;;;5132089;27;20446;-84
2022/03/30 02:36:43;;;;;;;10.80;7.37;;;16.20;46.10;;;;;;5133483;27;20449;-81
2022/03/30 02:39:11;;;;;;;14.57;8.27;;;16.20;46.10;;;;;;5130783;27;20530;-82
2022/03/30 02:41:38;;;;;;;10.43;7.80;;;16.10;45.90;;;;;;5132498;27;20525;-84
2022/03/30 02:44:06;;;;;;;14.07;8.53;;;16.10;45.90;;;;;;5129880;27;20445;-82
2022/03/30 02:46:34;;;;;;;10.10;7.47;;;16.10;45.70;;;;;;5133264;27;20453;-82
2022/03/30 02:49:01;;;;;;;14.27;8.73;;;16.10;45.60;;;;;;5131050;27;21192;-82
2022/03/30 02:51:29;;;;;;;13.00;7.70;;;16.10;45.00;;;;;;5130545;27;20841;-82
2022/03/30 02:53:56;;;;;;;12.93;6.93;;;16.00;45.10;;;;;;5111060;27;21035;-82
2022/03/30 02:56:23;;;;;;;14.73;7.57;;;16.00;45.30;;;;;;5132172;27;20446;-83
2022/03/30 02:58:50;;;;;;;11.73;8.00;;;16.00;45.20;;;;;;5132419;27;20450;-80
2022/03/30 03:01:17;;;;;;;10.83;7.77;;;16.00;45.10;;;;;;5132200;27;20497;-83
2022/03/30 03:03:46;;;;;;;12.83;8.07;;;16.00;45.30;;;;;;5131116;27;20463;-83
2022/03/30 03:06:13;;;;;;;9.93;6.63;;;16.00;45.00;;;;;;5132558;27;20570;-82
2022/03/30 03:08:40;;;;;;;16.90;7.83;;;16.00;44.40;;;;;;5134274;27;20459;-81
2022/03/30 03:11:07;;;;;;;11.97;7.30;;;15.90;44.80;;;;;;5129946;27;20462;-82
2022/03/30 03:13:34;;;;;;;14.87;8.40;;;15.70;45.50;;;;;;5129511;27;20449;-83
2022/03/30 03:16:01;;;;;;;9.70;6.60;;;15.70;45.90;;;;;;5128893;27;20441;-82
2022/03/30 03:18:28;;;;;;;10.70;7.53;;;15.80;45.90;;;;;;5124628;27;20457;-83
2022/03/30 03:20:56;;;;;;;14.20;7.70;;;15.90;45.90;;;;;;5129056;27;20487;-82
2022/03/30 03:23:24;;;;;;;14.10;7.80;;;15.90;45.90;;;;;;5132046;27;20488;-81
2022/03/30 03:25:51;;;;;;;9.50;7.40;;;15.60;45.20;;;;;;5130429;27;21480;-83
2022/03/30 03:28:18;;;;;;;55.87;23.17;;;15.50;45.00;;;;;;5130030;27;20449;-82
2022/03/30 03:30:45;;;;;;;112.07;42.70;;;15.50;45.60;;;;;;5131495;27;20851;-83
2022/03/30 03:33:12;;;;;;;70.67;31.23;;;15.50;45.20;;;;;;5130759;27;20822;-83
2022/03/30 03:35:39;;;;;;;37.50;16.80;;;15.50;45.10;;;;;;5131620;27;20799;-84
2022/03/30 03:38:09;;;;;;;18.03;12.13;;;15.50;45.40;;;;;;5132746;27;20448;-82
2022/03/30 03:40:36;;;;;;;19.30;10.50;;;15.50;46.00;;;;;;5131968;27;20529;-84
2022/03/30 03:43:05;;;;;;;16.67;11.10;;;15.60;46.10;;;;;;5129464;27;20473;-83
2022/03/30 03:45:32;;;;;;;13.13;9.23;;;15.60;46.00;;;;;;5129227;27;20448;-84
2022/03/30 03:48:00;;;;;;;12.23;7.80;;;15.70;45.80;;;;;;5129586;27;20464;-82
2022/03/30 03:50:27;;;;;;;13.23;8.30;;;15.70;45.20;;;;;;5127463;27;20464;-82
2022/03/30 03:52:55;;;;;;;14.33;7.37;;;15.70;45.40;;;;;;5130801;27;20437;-83
2022/03/30 03:55:24;;;;;;;11.43;7.73;;;15.80;45.40;;;;;;5128901;27;20967;-85
2022/03/30 03:57:51;;;;;;;18.43;8.47;;;15.80;45.40;;;;;;5131991;27;20449;-82
2022/03/30 04:00:19;;;;;;;16.50;7.80;;;15.80;45.60;;;;;;5132370;27;20482;-83
2022/03/30 04:02:46;;;;;;;12.20;7.80;;;15.80;46.00;;;;;;5116687;27;20554;-83
2022/03/30 04:05:14;;;;;;;13.83;8.27;;;15.80;45.90;;;;;;5111711;27;20453;-83
2022/03/30 04:07:42;;;;;;;12.60;8.50;;;15.70;45.90;;;;;;5133331;27;20497;-83
2022/03/30 04:10:10;;;;;;;14.97;8.43;;;15.80;46.90;;;;;;5130531;27;20495;-85
2022/03/30 04:12:40;;;;;;;18.20;8.77;;;15.70;45.90;;;;;;5130853;27;20449;-83
2022/03/30 04:15:09;;;;;;;14.17;8.93;;;15.70;47.40;;;;;;5129449;27;20443;-83
2022/03/30 04:17:42;;;;;;;14.90;8.23;;;15.70;47.70;;;;;;5130433;27;20534;-84
2022/03/30 04:20:10;;;;;;;12.40;7.37;;;15.70;48.30;;;;;;5131579;27;20473;-83
2022/03/30 04:22:37;;;;;;;12.53;8.67;;;15.70;48.30;;;;;;5133564;27;20547;-84
2022/03/30 04:25:04;;;;;;;16.70;9.17;;;15.60;47.80;;;;;;5133560;27;20453;-83
2022/03/30 04:27:31;;;;;;;14.50;8.60;;;15.50;47.60;;;;;;5135849;27;20919;-83
2022/03/30 04:30:00;;;;;;;16.37;8.90;;;15.50;48.40;;;;;;5131391;27;20976;-83
2022/03/30 04:32:27;;;;;;;13.40;8.47;;;15.50;49.30;;;;;;5133717;27;20948;-82
2022/03/30 04:34:54;;;;;;;15.87;9.13;;;15.50;49.90;;;;;;5136142;27;20445;-85
2022/03/30 04:37:21;;;;;;;14.30;8.33;;;15.50;50.10;;;;;;5137741;27;20543;-83
2022/03/30 04:39:48;;;;;;;16.50;8.77;;;15.40;50.00;;;;;;5133254;27;20487;-82
2022/03/30 04:42:15;;;;;;;13.60;8.50;;;15.40;50.00;;;;;;5125396;27;20438;-85
2022/03/30 04:44:42;;;;;;;18.20;8.90;;;15.30;49.30;;;;;;5134544;27;20456;-84
2022/03/30 04:47:10;;;;;;;17.67;9.30;;;15.10;49.80;;;;;;5115518;27;20476;-83
2022/03/30 04:49:37;;;;;;;15.20;9.17;;;15.20;50.70;;;;;;5133849;27;20481;-83
2022/03/30 04:52:05;;;;;;;16.03;9.73;;;15.20;51.30;;;;;;5133475;27;20493;-82
2022/03/30 04:54:32;;;;;;;15.80;9.60;;;15.20;51.70;;;;;;5135097;27;21279;-86
2022/03/30 04:56:59;;;;;;;17.00;9.87;;;15.20;51.70;;;;;;5133200;27;20454;-85
2022/03/30 04:59:26;;;;;;;12.60;9.00;;;15.30;52.30;;;;;;5134546;27;20460;-85
2022/03/30 05:01:53;;;;;;;13.90;9.10;;;15.20;52.60;;;;;;5130758;27;20452;-85
2022/03/30 05:04:21;;;;;;;14.57;9.43;;;15.20;52.30;;;;;;5133551;27;20990;-86
2022/03/30 05:06:48;;;;;;;15.00;10.07;;;15.10;52.10;;;;;;5134926;27;20452;-84
2022/03/30 05:09:15;;;;;;;48.70;25.80;;;14.50;52.10;;;;;;5134109;27;20446;-87
2022/03/30 05:11:43;;;;;;;23.10;13.40;;;14.40;53.80;;;;;;5132818;27;20457;-86
2022/03/30 05:14:11;;;;;;;17.77;10.80;;;14.50;53.40;;;;;;5132208;27;21037;-86
2022/03/30 05:16:37;;;;;;;17.00;11.40;;;14.60;52.90;;;;;;5115404;27;20898;-87
2022/03/30 05:19:05;;;;;;;21.47;11.87;;;14.60;53.50;;;;;;5112801;27;20506;-86
2022/03/30 05:21:33;;;;;;;17.13;10.57;;;14.60;53.90;;;;;;5134486;27;21042;-87
2022/03/30 05:24:00;;;;;;;15.40;9.60;;;14.70;53.50;;;;;;5112948;27;21038;-85
2022/03/30 05:26:28;;;;;;;19.17;10.03;;;14.70;53.40;;;;;;5132361;27;20433;-87
2022/03/30 05:28:56;;;;;;;20.70;9.73;;;14.70;53.10;;;;;;5130827;27;20476;-87
2022/03/30 05:31:23;;;;;;;14.90;9.70;;;14.70;53.00;;;;;;5135877;27;20466;-87
2022/03/30 05:33:50;;;;;;;22.63;10.17;;;14.70;53.40;;;;;;5132905;27;20479;-88
2022/03/30 05:36:18;;;;;;;22.40;10.10;;;14.60;52.10;;;;;;5114577;27;20564;-85
2022/03/30 05:38:48;;;;;;;19.03;11.17;;;14.50;51.90;;;;;;5114971;27;20433;-87
2022/03/30 05:41:15;;;;;;;17.80;10.57;;;14.50;52.90;;;;;;5132892;27;20559;-85
2022/03/30 05:43:42;;;;;;;19.13;10.50;;;14.60;53.70;;;;;;5133307;27;20460;-88
2022/03/30 05:46:09;;;;;;;17.43;10.93;;;14.50;53.60;;;;;;5131542;27;20457;-87
2022/03/30 05:48:37;;;;;;;17.90;11.13;;;14.60;53.70;;;;;;5132652;27;20448;-87
2022/03/30 05:51:04;;;;;;;17.90;9.90;;;14.50;53.00;;;;;;5130727;27;20460;-86
2022/03/30 05:53:31;;;;;;;16.70;10.50;;;14.60;53.50;;;;;;5113460;27;20446;-87
2022/03/30 05:56:00;;;;;;;16.33;10.20;;;14.60;53.70;;;;;;5117721;27;20476;-87
2022/03/30 05:58:27;;;;;;;19.20;12.10;;;14.50;53.80;;;;;;5128846;27;20504;-87
2022/03/30 06:00:54;;;;;;;19.60;11.37;;;14.60;53.80;;;;;;5131026;27;20980;-87
2022/03/30 06:03:21;;;;;;;21.00;11.70;;;14.60;53.30;;;;;;5132546;27;20477;-87
2022/03/30 06:05:50;;;;;;;20.20;12.13;;;14.60;53.20;;;;;;5133800;27;20525;-86
2022/03/30 06:08:17;;;;;;;22.17;12.77;;;14.70;53.50;;;;;;5097072;27;20475;-87
2022/03/30 06:10:46;;;;;;;24.83;14.97;;;14.60;53.70;;;;;;5131081;27;20935;-87
2022/03/30 06:13:14;;;;;;;23.60;13.73;;;14.50;53.40;;;;;;5130842;27;20449;-86
2022/03/30 06:15:41;;;;;;;20.87;11.90;;;14.60;53.70;;;;;;5131879;27;20457;-87
2022/03/30 06:18:11;;;;;;;21.43;12.60;;;14.50;54.60;;;;;;5111639;27;20449;-87
2022/03/30 06:20:39;;;;;;;21.33;12.57;;;14.50;54.50;;;;;;5132516;27;20921;-87
2022/03/30 06:23:06;;;;;;;26.77;12.10;;;14.60;54.10;;;;;;5131595;27;20465;-87
2022/03/30 06:25:33;;;;;;;19.23;11.90;;;14.50;54.40;;;;;;5133749;27;20449;-87
2022/03/30 06:28:00;;;;;;;21.23;12.50;;;14.50;54.10;;;;;;5132156;27;20472;-88
2022/03/30 06:30:29;;;;;;;17.20;10.00;;;14.40;54.30;;;;;;5131232;27;20473;-86
2022/03/30 06:32:57;;;;;;;20.97;10.90;;;14.40;53.40;;;;;;5110154;27;20537;-87
2022/03/30 06:35:25;;;;;;;20.70;11.53;;;14.40;53.60;;;;;;5131687;27;20538;-87
2022/03/30 06:37:52;;;;;;;17.30;10.40;;;14.40;54.50;;;;;;5096544;27;20461;-87
2022/03/30 06:40:19;;;;;;;20.03;11.63;;;14.40;54.60;;;;;;5132921;27;20476;-87
2022/03/30 06:42:48;;;;;;;29.77;12.23;;;14.40;54.80;;;;;;5131563;27;21094;-87
2022/03/30 06:45:15;;;;;;;25.93;11.20;;;14.40;54.80;;;;;;5129946;27;20953;-87
2022/03/30 06:47:44;;;;;;;22.47;12.80;;;14.30;54.90;;;;;;5115759;27;20509;-87
2022/03/30 06:50:13;;;;;;;26.33;13.30;;;14.40;54.20;;;;;;5113884;27;20521;-87
2022/03/30 06:52:41;;;;;;;31.70;14.53;;;14.40;53.80;;;;;;5112948;27;20446;-87
2022/03/30 06:55:09;;;;;;;28.30;13.73;;;14.20;54.20;;;;;;5132401;27;20445;-86
2022/03/30 06:57:36;;;;;;;23.60;10.80;;;14.10;55.00;;;;;;5130585;27;21065;-87
2022/03/30 07:00:04;;;;;;;19.60;11.20;;;14.20;54.50;;;;;;5130824;27;20485;-87
2022/03/30 07:02:31;;;;;;;24.57;12.00;;;14.30;54.50;;;;;;5115113;27;20508;-87
2022/03/30 07:04:59;;;;;;;15.70;9.97;;;14.30;54.00;;;;;;5129573;27;20456;-88
2022/03/30 07:10:17;;;;;;;26.60;11.20;;;14.40;54.10;;;;;;5130386;27;20453;-87
2022/03/30 07:12:45;;;;;;;17.53;10.43;;;14.40;54.10;;;;;;5091126;27;21163;-87
2022/03/30 07:15:13;;;;;;;18.93;10.40;;;14.30;53.80;;;;;;5109299;27;20457;-89
2022/03/30 07:17:52;;;;;;;27.40;11.23;;;14.40;53.60;;;;;;5100009;27;20466;-88
2022/03/30 07:20:22;;;;;;;21.27;12.03;;;14.40;53.50;;;;;;5130636;27;20497;-87
2022/03/30 07:22:50;;;;;;;23.00;12.60;;;14.40;54.30;;;;;;5129925;27;20442;-86
2022/03/30 07:25:19;;;;;;;20.07;10.67;;;14.30;54.30;;;;;;5110192;27;20449;-87
2022/03/30 07:27:48;;;;;;;16.63;10.90;;;14.30;54.60;;;;;;5118847;27;20949;-87
2022/03/30 07:30:17;;;;;;;21.77;11.73;;;14.30;55.00;;;;;;5128807;27;20961;-88
2022/03/30 07:32:47;;;;;;;17.60;10.10;;;14.40;55.40;;;;;;5113039;27;20448;-86
2022/03/30 07:35:16;;;;;;;18.00;11.40;;;14.30;55.60;;;;;;5118644;27;20441;-88
2022/03/30 07:37:45;;;;;;;22.37;12.57;;;14.30;55.30;;;;;;5130358;27;20441;-88
2022/03/30 07:40:16;;;;;;;21.53;11.53;;;14.40;55.50;;;;;;5109097;27;20465;-88
2022/03/30 07:42:44;;;;;;;19.93;11.70;;;14.40;55.60;;;;;;5121018;27;20465;-88
2022/03/30 07:45:11;;;;;;;24.13;12.27;;;14.30;55.40;;;;;;5129109;27;21010;-87
2022/03/30 07:47:39;;;;;;;22.53;13.87;;;14.40;55.80;;;;;;5128575;27;20452;-86
2022/03/30 07:50:08;;;;;;;22.43;13.30;;;14.40;55.60;;;;;;5127774;27;20465;-87
2022/03/30 07:52:36;;;;;;;56.13;27.00;;;14.30;55.00;;;;;;5131713;27;20439;-88
2022/03/30 07:55:06;;;;;;;29.13;12.93;;;14.30;55.20;;;;;;5130609;27;20453;-87
2022/03/30 07:57:34;;;;;;;29.60;13.90;;;14.30;55.40;;;;;;5116880;27;20461;-86
2022/03/30 08:00:02;;;;;;;20.13;12.10;;;14.30;55.30;;;;;;5115015;27;20462;-86
2022/03/30 08:02:31;;;;;;;23.83;13.40;;;14.30;55.70;;;;;;5133688;27;20465;-87
2022/03/30 08:04:58;;;;;;;21.07;12.63;;;14.30;55.60;;;;;;5113994;27;20468;-87
2022/03/30 08:07:26;;;;;;;18.97;11.60;;;14.20;56.20;;;;;;5132576;27;20453;-87
2022/03/30 08:09:54;;;;;;;28.00;15.30;;;14.00;56.30;;;;;;5133983;27;20548;-87
2022/03/30 08:12:24;;;;;;;27.90;14.97;;;14.00;56.60;;;;;;5132489;27;20540;-87
2022/03/30 08:14:52;;;;;;;22.90;13.03;;;13.80;55.80;;;;;;5133227;27;20452;-87
2022/03/30 08:17:20;;;;;;;25.60;13.00;;;13.80;55.70;;;;;;5114655;27;20625;-87
2022/03/30 08:19:47;;;;;;;31.90;14.70;;;13.80;56.50;;;;;;5122312;27;20561;-87
2022/03/30 08:22:28;;;;;;;31.10;15.03;;;13.80;56.70;;;;;;5136856;27;20461;-87
2022/03/30 08:24:57;;;;;;;31.77;15.73;;;13.80;56.50;;;;;;5095539;27;20840;-87
2022/03/30 08:27:27;;;;;;;30.20;14.00;;;13.60;56.20;;;;;;5133116;27;20469;-87
2022/03/30 08:29:55;;;;;;;32.83;14.70;;;13.50;55.90;;;;;;5133850;27;20583;-87
2022/03/30 08:32:23;;;;;;;31.90;15.93;;;13.40;56.80;;;;;;5132334;27;20948;-87
2022/03/30 08:34:51;;;;;;;42.77;22.10;;;13.20;57.00;;;;;;5132150;27;20979;-87
2022/03/30 08:37:19;;;;;;;37.40;17.83;;;13.40;57.40;;;;;;5113287;27;20680;-87
2022/03/30 08:39:48;;;;;;;33.80;16.20;;;13.50;56.80;;;;;;5132429;27;20476;-87
2022/03/30 08:42:17;;;;;;;31.47;15.60;;;13.40;56.40;;;;;;5116375;27;21064;-87
2022/03/30 08:44:47;;;;;;;37.43;18.40;;;13.50;56.60;;;;;;5135230;27;20804;-86
2022/03/30 08:47:15;;;;;;;37.07;18.30;;;13.50;56.80;;;;;;5129034;27;20453;-87
2022/03/30 08:49:45;;;;;;;35.10;19.00;;;13.50;56.80;;;;;;5112424;27;21000;-87
2022/03/30 08:52:12;;;;;;;39.57;19.30;;;13.20;56.80;;;;;;5132464;27;20460;-87
2022/03/30 08:54:43;;;;;;;41.70;19.03;;;13.20;56.90;;;;;;5115549;27;20433;-87
2022/03/30 08:57:11;;;;;;;59.70;24.93;;;13.00;56.60;;;;;;5114401;27;20457;-87
2022/03/30 08:59:38;;;;;;;90.97;31.10;;;13.00;57.80;;;;;;5133909;27;20529;-87
2022/03/30 09:02:09;;;;;;;63.20;27.50;;;13.10;57.60;;;;;;5130353;27;20505;-87
2022/03/30 09:04:38;;;;;;;57.97;23.03;;;13.20;57.30;;;;;;5134568;27;21126;-88
2022/03/30 09:07:05;;;;;;;55.93;26.63;;;13.30;56.70;;;;;;5111956;27;20852;-87
2022/03/30 09:09:34;;;;;;;64.47;24.97;;;13.20;56.70;;;;;;5123495;27;20466;-88
2022/03/30 09:12:07;;;;;;;60.27;25.90;;;13.30;56.60;;;;;;5133667;27;20441;-87
2022/03/30 09:14:37;;;;;;;54.50;24.47;;;13.40;56.30;;;;;;5133350;27;20463;-88
2022/03/30 09:17:06;;;;;;;50.47;24.67;;;13.50;56.30;;;;;;5121866;27;20452;-85
2022/03/30 09:19:38;;;;;;;58.13;24.93;;;13.50;56.20;;;;;;5135199;27;20472;-87
2022/03/30 09:22:07;;;;;;;61.93;24.37;;;13.60;56.70;;;;;;5134116;27;20537;-85
2022/03/30 09:24:37;;;;;;;56.63;25.47;;;13.60;56.50;;;;;;5135179;27;20666;-86
2022/03/30 09:27:06;;;;;;;64.43;26.20;;;13.60;56.90;;;;;;5104991;27;20459;-86
2022/03/30 09:29:34;;;;;;;54.83;25.00;;;13.70;56.60;;;;;;5114906;27;20492;-87
2022/03/30 09:32:03;;;;;;;66.93;25.73;;;13.80;56.70;;;;;;5130948;27;20469;-88
2022/03/30 09:34:35;;;;;;;54.67;24.90;;;13.60;56.80;;;;;;5099037;27;20457;-87
2022/03/30 09:37:03;;;;;;;58.10;26.30;;;13.50;56.60;;;;;;5132947;27;20434;-88
2022/03/30 09:39:32;;;;;;;54.40;25.10;;;13.50;57.20;;;;;;5133535;27;20827;-88
2022/03/30 09:42:01;;;;;;;65.20;26.67;;;13.50;56.90;;;;;;5112851;27;20465;-88
2022/03/30 09:44:29;;;;;;;59.20;25.27;;;13.60;56.90;;;;;;5115042;27;20906;-88
2022/03/30 09:46:58;;;;;;;58.80;25.10;;;13.70;57.00;;;;;;5133197;27;20450;-88
2022/03/30 09:49:43;;;;;;;53.30;24.60;;;13.60;56.20;;;;;;5130458;27;20551;-89
2022/03/30 09:52:19;;;;;;;52.73;24.27;;;13.70;57.20;;;;;;5113264;27;20445;-88
2022/03/30 09:54:49;;;;;;;50.80;24.03;;;13.80;57.10;;;;;;5115280;27;20438;-88
2022/03/30 09:57:19;;;;;;;55.33;25.30;;;13.80;56.90;;;;;;5121163;27;20458;-88
2022/03/30 10:00:08;;;;;;;61.10;24.27;;;13.60;57.00;;;;;;5103384;27;20479;-88
2022/03/30 10:02:38;;;;;;;47.03;23.80;;;13.60;56.60;;;;;;5130744;27;20473;-88
2022/03/30 10:05:09;;;;;;;53.37;25.70;;;13.80;57.00;;;;;;5113112;27;20433;-88
2022/03/30 10:07:36;;;;;;;52.43;23.47;;;14.00;56.30;;;;;;5111460;27;20557;-88
2022/03/30 10:10:05;;;;;;;55.70;25.30;;;13.90;56.30;;;;;;5131387;27;20469;-88
2022/03/30 10:12:33;;;;;;;59.97;25.60;;;13.80;56.80;;;;;;5133871;27;20444;-87
2022/03/30 10:15:00;;;;;;;56.90;24.73;;;13.60;56.00;;;;;;5133119;27;20441;-87
2022/03/30 10:17:29;;;;;;;53.90;23.23;;;13.80;56.50;;;;;;5112974;27;20441;-88
2022/03/30 10:19:58;;;;;;;53.30;25.57;;;13.70;56.60;;;;;;5127291;27;20466;-87
2022/03/30 10:23:01;;;;;;;51.13;23.70;;;13.80;57.10;;;;;;5113362;27;20474;-87
2022/03/30 10:25:44;;;;;;;53.30;24.37;;;13.60;57.30;;;;;;5116856;27;20506;-87
2022/03/30 10:28:16;;;;;;;60.77;27.37;;;13.70;57.20;;;;;;5131171;27;20452;-88
2022/03/30 10:30:44;;;;;;;56.03;25.63;;;13.80;57.40;;;;;;5113063;27;20462;-87
2022/03/30 10:33:12;;;;;;;52.90;25.70;;;13.90;56.60;;;;;;5113774;27;20523;-87
2022/03/30 10:35:42;;;;;;;53.47;22.87;;;13.90;56.80;;;;;;5132550;27;20459;-88
2022/03/30 10:38:11;;;;;;;48.50;24.20;;;13.70;55.00;;;;;;5130710;27;21177;-87
2022/03/30 10:40:39;;;;;;;62.40;25.17;;;13.80;55.70;;;;;;5111136;27;20470;-88
2022/03/30 10:43:12;;;;;;;61.83;26.07;;;13.90;55.90;;;;;;5095261;27;20849;-87
2022/03/30 10:45:42;;;;;;;56.13;26.80;;;13.80;56.10;;;;;;5133312;27;21171;-88
2022/03/30 10:48:12;;;;;;;49.37;23.70;;;13.70;56.00;;;;;;5112325;27;20529;-87
2022/03/30 10:50:41;;;;;;;62.20;25.87;;;13.70;56.50;;;;;;5096132;27;20470;-87
2022/03/30 10:53:39;;;;;;;54.33;24.57;;;13.50;55.80;;;;;;5128533;27;20979;-87
2022/03/30 10:56:36;;;;;;;65.63;26.43;;;13.60;56.10;;;;;;5129825;27;20450;-88
2022/03/30 10:59:15;;;;;;;50.33;23.60;;;13.70;56.40;;;;;;5129187;27;20468;-87
2022/03/30 11:01:42;;;;;;;61.97;25.60;;;13.90;56.20;;;;;;5127529;27;20466;-87
2022/03/30 11:04:22;;;;;;;55.77;26.90;;;14.00;56.20;;;;;;5110635;27;20452;-87
2022/03/30 11:07:35;;;;;;;53.70;23.70;;;14.10;56.30;;;;;;5111267;27;20910;-87
2022/03/30 11:10:30;;;;;;;61.23;23.77;;;13.80;55.30;;;;;;5129951;27;20484;-87
2022/03/30 11:13:12;;;;;;;60.47;25.27;;;14.00;56.20;;;;;;5129188;27;20499;-88
2022/03/30 11:16:07;;;;;;;52.57;23.00;;;13.80;55.70;;;;;;5128079;27;20442;-87
2022/03/30 11:18:35;;;;;;;54.00;24.53;;;13.80;55.80;;;;;;5114504;27;20437;-88
2022/03/30 11:21:17;;;;;;;58.17;25.97;;;13.90;55.50;;;;;;5115545;27;20470;-88
2022/03/30 11:24:05;;;;;;;53.43;24.87;;;14.00;55.00;;;;;;5131459;27;20754;-88
2022/03/30 11:27:20;;;;;;;53.77;24.20;;;14.20;55.20;;;;;;5114339;27;20450;-88
2022/03/30 11:30:05;;;;;;;60.00;25.20;;;14.00;55.90;;;;;;5130182;27;20458;-88
2022/03/30 11:33:10;;;;;;;53.63;23.67;;;14.00;55.90;;;;;;5132589;27;20528;-88
2022/03/30 11:35:42;;;;;;;43.33;22.30;;;14.10;56.80;;;;;;5112495;27;21024;-88
2022/03/30 11:38:21;;;;;;;52.30;23.40;;;14.10;55.50;;;;;;5129003;27;20480;-88
2022/03/30 11:40:49;;;;;;;58.60;24.33;;;14.20;56.70;;;;;;5129422;27;20510;-87
2022/03/30 11:43:19;;;;;;;62.07;24.17;;;14.00;56.10;;;;;;5132436;27;20501;-88
2022/03/30 11:45:48;;;;;;;49.83;23.10;;;14.00;56.40;;;;;;5129073;27;20498;-87
2022/03/30 11:48:15;;;;;;;49.83;23.40;;;13.90;56.40;;;;;;5117174;27;20448;-87
2022/03/30 11:50:44;;;;;;;54.37;22.17;;;13.80;56.00;;;;;;5131561;27;20473;-88
2022/03/30 11:53:14;;;;;;;51.17;22.93;;;14.00;57.20;;;;;;5131312;27;20939;-88
2022/03/30 11:55:51;;;;;;;65.63;26.10;;;14.10;56.80;;;;;;5121408;27;20474;-88
2022/03/30 11:58:29;;;;;;;52.27;23.30;;;14.30;57.00;;;;;;5130956;27;20517;-89
2022/03/30 12:00:57;;;;;;;46.13;20.63;;;14.50;56.60;;;;;;5097503;27;20556;-87
2022/03/30 12:03:25;;;;;;;43.17;21.30;;;14.50;54.80;;;;;;5113093;27;20465;-88
2022/03/30 12:05:57;;;;;;;49.60;22.97;;;14.40;55.80;;;;;;5110395;27;20446;-88
2022/03/30 12:08:25;;;;;;;38.17;20.17;;;14.40;56.10;;;;;;5111430;27;20455;-89
2022/03/30 12:10:58;;;;;;;46.13;20.50;;;14.30;56.60;;;;;;5131478;27;20484;-89
2022/03/30 12:13:27;;;;;;;44.07;21.07;;;14.30;56.50;;;;;;5104309;27;20456;-89
2022/03/30 12:16:03;;;;;;;43.93;22.30;;;14.10;56.30;;;;;;5112340;27;20469;-89
2022/03/30 12:18:30;;;;;;;38.90;19.60;;;14.20;57.40;;;;;;5121927;27;20539;-89
2022/03/30 12:21:01;;;;;;;47.73;20.60;;;14.10;57.10;;;;;;5132125;27;20472;-89
2022/03/30 12:23:29;;;;;;;43.90;20.33;;;14.10;57.00;;;;;;5112958;27;20457;-89
2022/03/30 12:25:56;;;;;;;41.20;22.40;;;14.20;56.50;;;;;;5131844;27;20477;-88
2022/03/30 12:28:32;;;;;;;42.07;20.67;;;14.20;56.20;;;;;;5112434;27;20430;-88
2022/03/30 12:30:59;;;;;;;46.27;20.83;;;14.30;56.50;;;;;;5093478;27;20471;-88
2022/03/30 12:33:26;;;;;;;36.40;19.27;;;14.40;56.90;;;;;;5125997;27;20463;-88
2022/03/30 12:35:54;;;;;;;39.73;21.30;;;14.50;57.00;;;;;;5109402;27;20981;-88
2022/03/30 12:38:24;;;;;;;41.37;21.70;;;14.60;56.30;;;;;;5086077;27;20438;-89
2022/03/30 12:40:53;;;;;;;36.40;18.70;;;14.70;56.40;;;;;;5115819;27;20473;-88
2022/03/30 12:43:27;;;;;;;46.70;20.90;;;14.90;55.90;;;;;;5133540;27;20994;-85
2022/03/30 12:45:59;;;;;;;46.10;25.00;;;15.10;55.90;;;;;;5117020;27;20978;-87